Time,TemperatureF,DewpointF,PressureIn,WindDirection,WindDirectionDegrees,WindSpeedMPH,WindSpeedGustMPH,Humidity,HourlyPrecipIn,Conditions,Clouds,dailyrainin,SoftwareType,DateUTC
2013-01-14 00:00:00,28.0,22.0,-100.00,SSE,158,2.0,-999.0,80,0.00,,,-99.99,,2013-01-14 08:00:00,
2013-01-14 00:22:00,28.0,22.0,-100.00,SSE,158,2.0,-999.0,80,0.00,,,-99.99,,2013-01-14 08:22:00,
2013-01-14 00:33:00,28.0,22.0,-100.00,SSE,158,2.0,-999.0,80,0.00,,,-99.99,,2013-01-14 08:33:00,
2013-01-14 00:43:00,28.0,22.0,-100.00,SSE,158,2.0,-999.0,80,0.00,,,-99.99,,2013-01-14 08:43:00,
2013-01-14 00:53:00,28.0,22.0,-100.00,SSE,158,2.0,-999.0,80,0.00,,,-99.99,,2013-01-14 08:53:00,
2013-01-14 01:00:00,29.0,23.0,-100.00,ESE,114,1.0,-999.0,79,0.00,,,-99.99,,2013-01-14 09:00:00,
2013-01-14 01:23:00,29.0,23.0,-100.00,ESE,114,1.0,-999.0,79,0.00,,,-99.99,,2013-01-14 09:23:00,
2013-01-14 01:34:00,29.0,23.0,-100.00,ESE,114,1.0,-999.0,79,0.00,,,-99.99,,2013-01-14 09:34:00,
2013-01-14 01:43:00,29.0,23.0,-100.00,ESE,114,1.0,-999.0,79,0.00,,,-99.99,,2013-01-14 09:43:00,
2013-01-14 01:53:00,29.0,23.0,-100.00,ESE,114,1.0,-999.0,79,0.00,,,-99.99,,2013-01-14 09:53:00,
2013-01-14 02:00:00,28.0,23.0,-100.00,WSW,249,1.0,-999.0,82,0.00,,,-99.99,,2013-01-14 10:00:00,
2013-01-14 02:23:00,28.0,23.0,-100.00,WSW,249,1.0,-999.0,82,0.00,,,-99.99,,2013-01-14 10:23:00,
2013-01-14 02:33:00,28.0,23.0,-100.00,WSW,249,1.0,-999.0,82,0.00,,,-99.99,,2013-01-14 10:33:00,
2013-01-14 02:43:00,28.0,23.0,-100.00,WSW,249,1.0,-999.0,82,0.00,,,-99.99,,2013-01-14 10:43:00,
2013-01-14 02:52:00,28.0,23.0,-100.00,WSW,249,1.0,-999.0,82,0.00,,,-99.99,,2013-01-14 10:52:00,
2013-01-14 03:00:00,27.0,23.0,-100.00,SSW,199,3.0,-999.0,84,0.00,,,-99.99,,2013-01-14 11:00:00,
2013-01-14 03:22:00,27.0,23.0,-100.00,SSW,199,3.0,-999.0,84,0.00,,,-99.99,,2013-01-14 11:22:00,
2013-01-14 03:33:00,27.0,23.0,-100.00,SSW,199,3.0,-999.0,84,0.00,,,-99.99,,2013-01-14 11:33:00,
2013-01-14 03:43:00,27.0,23.0,-100.00,SSW,199,3.0,-999.0,84,0.00,,,-99.99,,2013-01-14 11:43:00,
2013-01-14 03:53:00,27.0,23.0,-100.00,SSW,199,3.0,-999.0,84,0.00,,,-99.99,,2013-01-14 11:53:00,
2013-01-14 04:00:00,26.0,22.0,-100.00,NW,310,1.0,-999.0,87,0.00,,,-99.99,,2013-01-14 12:00:00,
2013-01-14 04:23:00,26.0,22.0,-100.00,NW,310,1.0,-999.0,87,0.00,,,-99.99,,2013-01-14 12:23:00,
2013-01-14 04:33:00,26.0,22.0,-100.00,NW,310,1.0,-999.0,87,0.00,,,-99.99,,2013-01-14 12:33:00,
2013-01-14 04:43:00,26.0,22.0,-100.00,NW,310,1.0,-999.0,87,0.00,,,-99.99,,2013-01-14 12:43:00,
2013-01-14 04:53:00,26.0,22.0,-100.00,NW,310,1.0,-999.0,87,0.00,,,-99.99,,2013-01-14 12:53:00,
2013-01-14 05:00:00,28.0,24.0,-100.00,NE,54,2.0,-999.0,84,0.00,,,-99.99,,2013-01-14 13:00:00,
2013-01-14 05:23:00,28.0,24.0,-100.00,NE,54,2.0,-999.0,84,0.00,,,-99.99,,2013-01-14 13:23:00,
2013-01-14 05:33:00,28.0,24.0,-100.00,NE,54,2.0,-999.0,84,0.00,,,-99.99,,2013-01-14 13:33:00,
2013-01-14 05:43:00,28.0,24.0,-100.00,NE,54,2.0,-999.0,84,0.00,,,-99.99,,2013-01-14 13:43:00,
2013-01-14 05:53:00,28.0,24.0,-100.00,NE,54,2.0,-999.0,84,0.00,,,-99.99,,2013-01-14 13:53:00,
2013-01-14 06:00:00,27.0,23.0,-100.00,ENE,68,0.0,-999.0,84,0.00,,,-99.99,,2013-01-14 14:00:00,
2013-01-14 06:23:00,27.0,23.0,-100.00,ENE,68,0.0,-999.0,84,0.00,,,-99.99,,2013-01-14 14:23:00,
2013-01-14 06:33:00,27.0,23.0,-100.00,ENE,68,0.0,-999.0,84,0.00,,,-99.99,,2013-01-14 14:33:00,
2013-01-14 06:43:00,27.0,23.0,-100.00,ENE,68,0.0,-999.0,84,0.00,,,-99.99,,2013-01-14 14:43:00,
2013-01-14 06:53:00,27.0,23.0,-100.00,ENE,68,0.0,-999.0,84,0.00,,,-99.99,,2013-01-14 14:53:00,
2013-01-14 07:00:00,26.0,22.0,-100.00,NE,35,4.0,-999.0,86,0.00,,,-99.99,,2013-01-14 15:00:00,
2013-01-14 07:23:00,26.0,22.0,-100.00,NE,35,4.0,-999.0,86,0.00,,,-99.99,,2013-01-14 15:23:00,
2013-01-14 07:33:00,26.0,22.0,-100.00,NE,35,4.0,-999.0,86,0.00,,,-99.99,,2013-01-14 15:33:00,
2013-01-14 07:43:00,26.0,22.0,-100.00,NE,35,4.0,-999.0,86,0.00,,,-99.99,,2013-01-14 15:43:00,
2013-01-14 07:53:00,26.0,22.0,-100.00,NE,35,4.0,-999.0,86,0.00,,,-99.99,,2013-01-14 15:53:00,
2013-01-14 08:00:00,26.0,23.0,-100.00,SSW,213,1.0,-999.0,88,0.00,,,-99.99,,2013-01-14 16:00:00,
2013-01-14 08:23:00,26.0,23.0,-100.00,SSW,213,1.0,-999.0,88,0.00,,,-99.99,,2013-01-14 16:23:00,
2013-01-14 08:33:00,26.0,23.0,-100.00,SSW,213,1.0,-999.0,88,0.00,,,-99.99,,2013-01-14 16:33:00,
2013-01-14 08:43:00,26.0,23.0,-100.00,SSW,213,1.0,-999.0,88,0.00,,,-99.99,,2013-01-14 16:43:00,
2013-01-14 08:53:00,26.0,23.0,-100.00,SSW,213,1.0,-999.0,88,0.00,,,-99.99,,2013-01-14 16:53:00,
2013-01-14 09:00:00,29.0,24.0,-100.00,WNW,300,2.0,-999.0,79,0.00,,,-99.99,,2013-01-14 17:00:00,
2013-01-14 09:23:00,29.0,24.0,-100.00,WNW,300,2.0,-999.0,79,0.00,,,-99.99,,2013-01-14 17:23:00,
2013-01-14 09:33:00,29.0,24.0,-100.00,WNW,300,2.0,-999.0,79,0.00,,,-99.99,,2013-01-14 17:33:00,
2013-01-14 09:43:00,29.0,24.0,-100.00,WNW,300,2.0,-999.0,79,0.00,,,-99.99,,2013-01-14 17:43:00,
2013-01-14 09:53:00,29.0,24.0,-100.00,WNW,300,2.0,-999.0,79,0.00,,,-99.99,,2013-01-14 17:53:00,
2013-01-14 10:00:00,35.0,27.0,-100.00,South,188,2.0,-999.0,73,0.00,,,-99.99,,2013-01-14 18:00:00,
2013-01-14 10:23:00,35.0,27.0,-100.00,South,188,2.0,-999.0,73,0.00,,,-99.99,,2013-01-14 18:23:00,
2013-01-14 10:33:00,35.0,27.0,-100.00,South,188,2.0,-999.0,73,0.00,,,-99.99,,2013-01-14 18:33:00,
2013-01-14 10:43:00,35.0,27.0,-100.00,South,188,2.0,-999.0,73,0.00,,,-99.99,,2013-01-14 18:43:00,
2013-01-14 10:53:00,35.0,27.0,-100.00,South,188,2.0,-999.0,73,0.00,,,-99.99,,2013-01-14 18:53:00,
2013-01-14 11:00:00,38.0,27.0,-100.00,NNW,328,2.0,-999.0,63,0.00,,,-99.99,,2013-01-14 19:00:00,
2013-01-14 11:22:00,38.0,27.0,-100.00,NNW,328,2.0,-999.0,63,0.00,,,-99.99,,2013-01-14 19:22:00,
2013-01-14 11:33:00,38.0,27.0,-100.00,NNW,328,2.0,-999.0,63,0.00,,,-99.99,,2013-01-14 19:33:00,
2013-01-14 11:43:00,38.0,27.0,-100.00,NNW,328,2.0,-999.0,63,0.00,,,-99.99,,2013-01-14 19:43:00,
2013-01-14 11:53:00,38.0,27.0,-100.00,NNW,328,2.0,-999.0,63,0.00,,,-99.99,,2013-01-14 19:53:00,
2013-01-14 12:00:00,43.0,29.0,-100.00,NW,306,4.0,-999.0,59,0.00,,,-99.99,,2013-01-14 20:00:00,
2013-01-14 12:23:00,43.0,29.0,-100.00,NW,306,4.0,-999.0,59,0.00,,,-99.99,,2013-01-14 20:23:00,
2013-01-14 12:33:00,43.0,29.0,-100.00,NW,306,4.0,-999.0,59,0.00,,,-99.99,,2013-01-14 20:33:00,
2013-01-14 12:43:00,43.0,29.0,-100.00,NW,306,4.0,-999.0,59,0.00,,,-99.99,,2013-01-14 20:43:00,
2013-01-14 12:53:00,43.0,29.0,-100.00,NW,306,4.0,-999.0,59,0.00,,,-99.99,,2013-01-14 20:53:00,
2013-01-14 13:00:00,44.0,29.0,-100.00,NW,314,4.0,-999.0,55,0.00,,,-99.99,,2013-01-14 21:00:00,
2013-01-14 13:23:00,44.0,29.0,-100.00,NW,314,4.0,-999.0,55,0.00,,,-99.99,,2013-01-14 21:23:00,
2013-01-14 13:33:00,44.0,29.0,-100.00,NW,314,4.0,-999.0,55,0.00,,,-99.99,,2013-01-14 21:33:00,
2013-01-14 13:43:00,44.0,29.0,-100.00,NW,314,4.0,-999.0,55,0.00,,,-99.99,,2013-01-14 21:43:00,
2013-01-14 13:53:00,44.0,29.0,-100.00,NW,314,4.0,-999.0,55,0.00,,,-99.99,,2013-01-14 21:53:00,
2013-01-14 14:00:00,45.0,28.0,-100.00,NNW,338,2.0,-999.0,51,0.00,,,-99.99,,2013-01-14 22:00:00,
2013-01-14 14:23:00,45.0,28.0,-100.00,NNW,338,2.0,-999.0,51,0.00,,,-99.99,,2013-01-14 22:23:00,
2013-01-14 14:33:00,45.0,28.0,-100.00,NNW,338,2.0,-999.0,51,0.00,,,-99.99,,2013-01-14 22:33:00,
2013-01-14 14:43:00,45.0,28.0,-100.00,NNW,338,2.0,-999.0,51,0.00,,,-99.99,,2013-01-14 22:43:00,
2013-01-14 14:52:00,45.0,28.0,-100.00,NNW,338,2.0,-999.0,51,0.00,,,-99.99,,2013-01-14 22:52:00,
2013-01-14 15:00:00,47.0,27.0,-100.00,NW,312,6.0,-999.0,46,0.00,,,-99.99,,2013-01-14 23:00:00,
2013-01-14 15:23:00,47.0,27.0,-100.00,NW,312,6.0,-999.0,46,0.00,,,-99.99,,2013-01-14 23:23:00,
2013-01-14 15:33:00,47.0,27.0,-100.00,NW,312,6.0,-999.0,46,0.00,,,-99.99,,2013-01-14 23:33:00,
2013-01-14 15:43:00,47.0,27.0,-100.00,NW,312,6.0,-999.0,46,0.00,,,-99.99,,2013-01-14 23:43:00,
2013-01-14 15:53:00,47.0,27.0,-100.00,NW,312,6.0,-999.0,46,0.00,,,-99.99,,2013-01-14 23:53:00,
2013-01-14 16:00:00,47.0,27.0,-100.00,West,278,6.0,-999.0,46,0.00,,,-99.99,,2013-01-15 00:00:00,
2013-01-14 16:23:00,47.0,27.0,-100.00,West,278,6.0,-999.0,46,0.00,,,-99.99,,2013-01-15 00:23:00,
2013-01-14 16:33:00,47.0,27.0,-100.00,West,278,6.0,-999.0,46,0.00,,,-99.99,,2013-01-15 00:33:00,
2013-01-14 16:43:00,47.0,27.0,-100.00,West,278,6.0,-999.0,46,0.00,,,-99.99,,2013-01-15 00:43:00,
2013-01-14 16:53:00,47.0,27.0,-100.00,West,278,6.0,-999.0,46,0.00,,,-99.99,,2013-01-15 00:53:00,
2013-01-14 17:00:00,46.0,27.0,-100.00,West,271,7.0,-999.0,47,0.00,,,-99.99,,2013-01-15 01:00:00,
2013-01-14 17:23:00,46.0,27.0,-100.00,West,271,7.0,-999.0,47,0.00,,,-99.99,,2013-01-15 01:23:00,
2013-01-14 17:32:00,46.0,27.0,-100.00,West,271,7.0,-999.0,47,0.00,,,-99.99,,2013-01-15 01:32:00,
2013-01-14 17:43:00,46.0,27.0,-100.00,West,271,7.0,-999.0,47,0.00,,,-99.99,,2013-01-15 01:43:00,
2013-01-14 17:52:00,46.0,27.0,-100.00,West,271,7.0,-999.0,47,0.00,,,-99.99,,2013-01-15 01:52:00,
2013-01-14 18:00:00,41.0,27.0,-100.00,WSW,244,1.0,-999.0,57,0.00,,,-99.99,,2013-01-15 02:00:00,
2013-01-14 18:23:00,41.0,27.0,-100.00,WSW,244,1.0,-999.0,57,0.00,,,-99.99,,2013-01-15 02:23:00,
2013-01-14 18:33:00,41.0,27.0,-100.00,WSW,244,1.0,-999.0,57,0.00,,,-99.99,,2013-01-15 02:33:00,
2013-01-14 18:42:00,41.0,27.0,-100.00,WSW,244,1.0,-999.0,57,0.00,,,-99.99,,2013-01-15 02:42:00,
2013-01-14 18:53:00,41.0,27.0,-100.00,WSW,244,1.0,-999.0,57,0.00,,,-99.99,,2013-01-15 02:53:00,
2013-01-14 19:00:00,38.0,27.0,-100.00,ENE,66,1.0,-999.0,63,0.00,,,-99.99,,2013-01-15 03:00:00,
2013-01-14 19:22:00,38.0,27.0,-100.00,ENE,66,1.0,-999.0,63,0.00,,,-99.99,,2013-01-15 03:22:00,
2013-01-14 19:33:00,38.0,27.0,-100.00,ENE,66,1.0,-999.0,63,0.00,,,-99.99,,2013-01-15 03:33:00,
2013-01-14 19:42:00,38.0,27.0,-100.00,ENE,66,1.0,-999.0,63,0.00,,,-99.99,,2013-01-15 03:42:00,
2013-01-14 19:52:00,38.0,27.0,-100.00,ENE,66,1.0,-999.0,63,0.00,,,-99.99,,2013-01-15 03:52:00,
2013-01-14 20:00:00,35.0,28.0,-100.00,East,83,2.0,-999.0,73,0.00,,,-99.99,,2013-01-15 04:00:00,
2013-01-14 20:22:00,35.0,28.0,-100.00,East,83,2.0,-999.0,73,0.00,,,-99.99,,2013-01-15 04:22:00,
2013-01-14 20:33:00,35.0,28.0,-100.00,East,83,2.0,-999.0,73,0.00,,,-99.99,,2013-01-15 04:33:00,
2013-01-14 20:42:00,35.0,28.0,-100.00,East,83,2.0,-999.0,73,0.00,,,-99.99,,2013-01-15 04:42:00,
2013-01-14 20:52:00,35.0,28.0,-100.00,East,83,2.0,-999.0,73,0.00,,,-99.99,,2013-01-15 04:52:00,
2013-01-14 21:00:00,35.0,27.0,-100.00,SE,131,2.0,-999.0,73,0.00,,,-99.99,,2013-01-15 05:00:00,
2013-01-14 21:22:00,35.0,27.0,-100.00,SE,131,2.0,-999.0,73,0.00,,,-99.99,,2013-01-15 05:22:00,
2013-01-14 21:33:00,35.0,27.0,-100.00,SE,131,2.0,-999.0,73,0.00,,,-99.99,,2013-01-15 05:33:00,
2013-01-14 21:42:00,35.0,27.0,-100.00,SE,131,2.0,-999.0,73,0.00,,,-99.99,,2013-01-15 05:42:00,
2013-01-14 21:52:00,35.0,27.0,-100.00,SE,131,2.0,-999.0,73,0.00,,,-99.99,,2013-01-15 05:52:00,
2013-01-14 22:00:00,35.0,27.0,-100.00,NNW,344,4.0,-999.0,71,0.00,,,-99.99,,2013-01-15 06:00:00,
2013-01-14 22:22:00,35.0,27.0,-100.00,NNW,344,4.0,-999.0,71,0.00,,,-99.99,,2013-01-15 06:22:00,
2013-01-14 22:33:00,35.0,27.0,-100.00,NNW,344,4.0,-999.0,71,0.00,,,-99.99,,2013-01-15 06:33:00,
2013-01-14 22:43:00,35.0,27.0,-100.00,NNW,344,4.0,-999.0,71,0.00,,,-99.99,,2013-01-15 06:43:00,
2013-01-14 22:52:00,35.0,27.0,-100.00,NNW,344,4.0,-999.0,71,0.00,,,-99.99,,2013-01-15 06:52:00,
2013-01-14 23:00:00,38.0,28.0,-100.00,ESE,103,7.0,-999.0,64,0.00,,,-99.99,,2013-01-15 07:00:00,
2013-01-14 23:22:00,38.0,28.0,-100.00,ESE,103,7.0,-999.0,64,0.00,,,-99.99,,2013-01-15 07:22:00,
2013-01-14 23:33:00,38.0,28.0,-100.00,ESE,103,7.0,-999.0,64,0.00,,,-99.99,,2013-01-15 07:33:00,
2013-01-14 23:42:00,38.0,28.0,-100.00,ESE,103,7.0,-999.0,64,0.00,,,-99.99,,2013-01-15 07:42:00,
2013-01-14 23:52:00,38.0,28.0,-100.00,ESE,103,7.0,-999.0,64,0.00,,,-99.99,,2013-01-15 07:52:00,